Česky Dansk Deutsch English Español Suomi Français Magyar Italiano Nederlands norsk Polski Português svenska Türkçe

 

Het Weer

Passo Rolle (Italien)

13:55, 21 August 2016 (GMT)

NWNNE
WE
SWSSE
Home            
Passo Rolle Bolzano Dobbiaco Paganella Aviano Aviano Usaf Treviso / Istrana Treviso / S. Angelo Vicenza Venezia / Tessera Dova Area Control Center Udine / Rivolto Udine / Campoformido Innsbruck-Flughafen Resia Pass Schwaz Heliport Verona / Villafranca Zell Am See Tarvisio Ronchi Dei Legionari Brescia / Montichia Brescia / Ghedi Portoroz

Om een weerknop op uw website of weblog te plaatsen, copieer onderstaande code en plak die in uw pagina. In het eerste vakje staat HTML-code, in het tweede vakje UBB-code.


Add to Google

Details

Wind speed:2 bf, 4 kn, 2.1 m/s, 4.6 miles/h, 7.4 km/h
Wind direction:S, 180°
Sichtweite: 100 m, 0.1 km, 328 ft, 0.1 miles
Het Weer:mittel Regen
mittel Nebel
Temperatur:12°C, 54°F
Taupunkt:11°C, 52°F
Luftdruck:1023 hPa, 767.3 mmHg, 30.21 inHg, 1.010 atm
Relative Luftfeuchtigkeit:93.6 %
METAR:LIVR 211355Z 18004KT 0100 RA FG VV 12/11 Q1023 RMK MON INVIS VIS MIN 0100

Snelkoppelingen

Actuele weersinformatie van de hele wereld. Voeg locaties toe met het plus (+) symbool. Deze snelkoppelingen kunnen worden toegevoegd aan Google.

Lid van de Technetium groep

website free tracking
StatCounter NetStat W3C Validator

10-08-2022 07:57:21
astro.technetium.be money.technetium.be phote.technetium.be tafeltennistafel.technetium.be www.ligfiets.net